sensor_id;sensor_type;location;lat;lon;timestamp;P1;durP1;ratioP1;P2;durP2;ratioP2
79346;SDS011;68815;48.810;44.482;2023-08-20T00:02:19;4.2;;;1.9;;
79346;SDS011;68815;48.810;44.482;2023-08-20T00:05:24;4.8;;;1.9;;
79346;SDS011;68815;48.810;44.482;2023-08-20T00:08:25;5.9;;;2.2;;
79346;SDS011;68815;48.810;44.482;2023-08-20T00:11:27;7.1;;;1.9;;
79346;SDS011;68815;48.810;44.482;2023-08-20T00:17:55;4.1;;;1.8;;
79346;SDS011;68815;48.810;44.482;2023-08-20T00:20:57;4.5;;;1.8;;
79346;SDS011;68815;48.810;44.482;2023-08-20T00:23:59;4.9;;;2.1;;
79346;SDS011;68815;48.810;44.482;2023-08-20T00:27:00;7.9;;;2;;
79346;SDS011;68815;48.810;44.482;2023-08-20T00:30:02;6.6;;;1.9;;
79346;SDS011;68815;48.810;44.482;2023-08-20T00:33:06;7.2;;;2.5;;
79346;SDS011;68815;48.810;44.482;2023-08-20T00:36:08;8.1;;;2.5;;
79346;SDS011;68815;48.810;44.482;2023-08-20T00:39:09;5.6;;;1.9;;
79346;SDS011;68815;48.810;44.482;2023-08-20T00:42:10;4.8;;;1.7;;
79346;SDS011;68815;48.810;44.482;2023-08-20T00:45:12;5.3;;;2;;
79346;SDS011;68815;48.810;44.482;2023-08-20T00:48:14;7.4;;;1.8;;
79346;SDS011;68815;48.810;44.482;2023-08-20T00:51:16;4.5;;;1.8;;
79346;SDS011;68815;48.810;44.482;2023-08-20T00:54:18;6.1;;;1.9;;
79346;SDS011;68815;48.810;44.482;2023-08-20T00:57:21;5.8;;;1.9;;
79346;SDS011;68815;48.810;44.482;2023-08-20T01:00:23;6.7;;;1.8;;
79346;SDS011;68815;48.810;44.482;2023-08-20T01:03:25;9.4;;;2.5;;
79346;SDS011;68815;48.810;44.482;2023-08-20T01:06:29;7.1;;;1.9;;
79346;SDS011;68815;48.810;44.482;2023-08-20T01:09:43;3.8;;;1.7;;
79346;SDS011;68815;48.810;44.482;2023-08-20T01:12:51;4.3;;;1.7;;
79346;SDS011;68815;48.810;44.482;2023-08-20T01:15:53;4.5;;;2.1;;
79346;SDS011;68815;48.810;44.482;2023-08-20T01:18:54;4.2;;;1.8;;
79346;SDS011;68815;48.810;44.482;2023-08-20T01:22:12;6.9;;;1.9;;
79346;SDS011;68815;48.810;44.482;2023-08-20T01:25:27;8;;;1.8;;
79346;SDS011;68815;48.810;44.482;2023-08-20T01:28:34;6.1;;;1.8;;
79346;SDS011;68815;48.810;44.482;2023-08-20T01:31:37;7.5;;;2.1;;
79346;SDS011;68815;48.810;44.482;2023-08-20T01:34:39;10.6;;;2.2;;
79346;SDS011;68815;48.810;44.482;2023-08-20T01:37:41;6.5;;;2.2;;
79346;SDS011;68815;48.810;44.482;2023-08-20T01:40:43;12.7;;;2;;
79346;SDS011;68815;48.810;44.482;2023-08-20T01:43:44;7.1;;;2;;
79346;SDS011;68815;48.810;44.482;2023-08-20T01:46:46;7.1;;;2;;
79346;SDS011;68815;48.810;44.482;2023-08-20T01:49:47;8.7;;;2.3;;
79346;SDS011;68815;48.810;44.482;2023-08-20T01:52:49;8.1;;;1.8;;
79346;SDS011;68815;48.810;44.482;2023-08-20T01:55:50;5.4;;;1.8;;
79346;SDS011;68815;48.810;44.482;2023-08-20T01:58:52;7;;;2;;
79346;SDS011;68815;48.810;44.482;2023-08-20T02:01:53;9.1;;;1.7;;
79346;SDS011;68815;48.810;44.482;2023-08-20T02:04:54;4.4;;;1.6;;
79346;SDS011;68815;48.810;44.482;2023-08-20T02:07:56;12.1;;;2.9;;
79346;SDS011;68815;48.810;44.482;2023-08-20T02:11:00;6.5;;;1.8;;
79346;SDS011;68815;48.810;44.482;2023-08-20T02:14:03;5.8;;;2;;
79346;SDS011;68815;48.810;44.482;2023-08-20T02:17:05;5.6;;;1.8;;
79346;SDS011;68815;48.810;44.482;2023-08-20T02:20:08;6.6;;;2;;
79346;SDS011;68815;48.810;44.482;2023-08-20T02:23:09;7.9;;;2.1;;
79346;SDS011;68815;48.810;44.482;2023-08-20T02:26:11;6;;;1.9;;
79346;SDS011;68815;48.810;44.482;2023-08-20T02:29:12;7.9;;;2.3;;
79346;SDS011;68815;48.810;44.482;2023-08-20T02:32:14;7.7;;;2.1;;
79346;SDS011;68815;48.810;44.482;2023-08-20T02:35:15;5.9;;;1.9;;
79346;SDS011;68815;48.810;44.482;2023-08-20T02:38:16;8.5;;;2.1;;
79346;SDS011;68815;48.810;44.482;2023-08-20T02:41:18;6.9;;;2.2;;
79346;SDS011;68815;48.810;44.482;2023-08-20T02:44:20;9.5;;;2.3;;
79346;SDS011;68815;48.810;44.482;2023-08-20T02:47:21;10.5;;;2.2;;
79346;SDS011;68815;48.810;44.482;2023-08-20T02:50:22;6.8;;;2;;
79346;SDS011;68815;48.810;44.482;2023-08-20T02:53:24;9.3;;;2.1;;
79346;SDS011;68815;48.810;44.482;2023-08-20T02:56:26;7.7;;;1.9;;
79346;SDS011;68815;48.810;44.482;2023-08-20T02:59:27;6.7;;;1.8;;
79346;SDS011;68815;48.810;44.482;2023-08-20T03:02:29;6.6;;;2.1;;
79346;SDS011;68815;48.810;44.482;2023-08-20T03:05:30;5.7;;;1.9;;
79346;SDS011;68815;48.810;44.482;2023-08-20T03:08:32;7.8;;;2.1;;
79346;SDS011;68815;48.810;44.482;2023-08-20T03:11:33;8.3;;;2;;
79346;SDS011;68815;48.810;44.482;2023-08-20T03:14:36;6;;;2.1;;
79346;SDS011;68815;48.810;44.482;2023-08-20T03:17:37;8.4;;;2;;
79346;SDS011;68815;48.810;44.482;2023-08-20T03:20:39;8.5;;;2.4;;
79346;SDS011;68815;48.810;44.482;2023-08-20T03:23:40;5.4;;;2;;
79346;SDS011;68815;48.810;44.482;2023-08-20T03:26:42;7.6;;;2;;
79346;SDS011;68815;48.810;44.482;2023-08-20T03:29:43;9.8;;;2.2;;
79346;SDS011;68815;48.810;44.482;2023-08-20T03:32:45;9;;;2.4;;
79346;SDS011;68815;48.810;44.482;2023-08-20T03:35:46;8.7;;;2.1;;
79346;SDS011;68815;48.810;44.482;2023-08-20T03:38:47;9.3;;;2.5;;
79346;SDS011;68815;48.810;44.482;2023-08-20T03:41:49;8.8;;;2.3;;
79346;SDS011;68815;48.810;44.482;2023-08-20T03:44:51;6.6;;;2;;
79346;SDS011;68815;48.810;44.482;2023-08-20T03:47:52;6.1;;;2.2;;
79346;SDS011;68815;48.810;44.482;2023-08-20T03:50:54;10;;;2.5;;
79346;SDS011;68815;48.810;44.482;2023-08-20T03:53:55;10.1;;;2.3;;
79346;SDS011;68815;48.810;44.482;2023-08-20T03:56:56;8.4;;;2.4;;
79346;SDS011;68815;48.810;44.482;2023-08-20T03:59:58;5.8;;;2;;
79346;SDS011;68815;48.810;44.482;2023-08-20T04:02:59;6.5;;;2.5;;
79346;SDS011;68815;48.810;44.482;2023-08-20T04:06:01;6.4;;;1.9;;
79346;SDS011;68815;48.810;44.482;2023-08-20T04:09:02;7.8;;;2.3;;
79346;SDS011;68815;48.810;44.482;2023-08-20T04:12:04;6.3;;;2.3;;
79346;SDS011;68815;48.810;44.482;2023-08-20T04:15:08;7;;;2;;
79346;SDS011;68815;48.810;44.482;2023-08-20T04:18:09;6.3;;;2;;
79346;SDS011;68815;48.810;44.482;2023-08-20T04:21:11;4.9;;;2;;
79346;SDS011;68815;48.810;44.482;2023-08-20T04:24:12;4.8;;;1.9;;
79346;SDS011;68815;48.810;44.482;2023-08-20T04:27:14;7.5;;;2.2;;
79346;SDS011;68815;48.810;44.482;2023-08-20T04:30:15;5;;;2;;
79346;SDS011;68815;48.810;44.482;2023-08-20T04:33:16;13.4;;;2.2;;
79346;SDS011;68815;48.810;44.482;2023-08-20T04:36:18;6.7;;;1.8;;
79346;SDS011;68815;48.810;44.482;2023-08-20T04:39:19;7.4;;;2.5;;
79346;SDS011;68815;48.810;44.482;2023-08-20T04:42:21;8.6;;;2.4;;
79346;SDS011;68815;48.810;44.482;2023-08-20T04:45:22;7.9;;;2.5;;
79346;SDS011;68815;48.810;44.482;2023-08-20T04:48:23;8.1;;;2.2;;
79346;SDS011;68815;48.810;44.482;2023-08-20T04:51:25;7.3;;;2.4;;
79346;SDS011;68815;48.810;44.482;2023-08-20T04:54:26;9;;;2.4;;
79346;SDS011;68815;48.810;44.482;2023-08-20T04:57:28;10.6;;;2.6;;
79346;SDS011;68815;48.810;44.482;2023-08-20T05:00:29;7;;;2.7;;
79346;SDS011;68815;48.810;44.482;2023-08-20T05:03:31;7.8;;;2.3;;
79346;SDS011;68815;48.810;44.482;2023-08-20T05:06:32;7.5;;;2.4;;
79346;SDS011;68815;48.810;44.482;2023-08-20T05:09:34;6;;;2.4;;
79346;SDS011;68815;48.810;44.482;2023-08-20T05:12:35;7.4;;;2.6;;
79346;SDS011;68815;48.810;44.482;2023-08-20T05:15:37;8.5;;;3.1;;
79346;SDS011;68815;48.810;44.482;2023-08-20T05:18:40;7;;;2.8;;
79346;SDS011;68815;48.810;44.482;2023-08-20T05:21:41;7.3;;;2.8;;
79346;SDS011;68815;48.810;44.482;2023-08-20T05:24:43;9.8;;;3;;
79346;SDS011;68815;48.810;44.482;2023-08-20T05:27:44;13.3;;;3.5;;
79346;SDS011;68815;48.810;44.482;2023-08-20T05:30:52;11.4;;;3.2;;
79346;SDS011;68815;48.810;44.482;2023-08-20T05:33:54;7;;;3;;
79346;SDS011;68815;48.810;44.482;2023-08-20T05:36:55;9.9;;;3.3;;
79346;SDS011;68815;48.810;44.482;2023-08-20T05:39:57;7.6;;;3.3;;
79346;SDS011;68815;48.810;44.482;2023-08-20T05:42:58;8.6;;;3.2;;
79346;SDS011;68815;48.810;44.482;2023-08-20T05:46:00;8.4;;;3.2;;
79346;SDS011;68815;48.810;44.482;2023-08-20T05:49:01;6.6;;;2.9;;
79346;SDS011;68815;48.810;44.482;2023-08-20T05:52:03;8.1;;;2.7;;
79346;SDS011;68815;48.810;44.482;2023-08-20T05:55:04;5.7;;;2.5;;
79346;SDS011;68815;48.810;44.482;2023-08-20T05:58:06;5.6;;;2.3;;
79346;SDS011;68815;48.810;44.482;2023-08-20T06:01:08;4.5;;;2.3;;
79346;SDS011;68815;48.810;44.482;2023-08-20T06:04:09;5.6;;;2.6;;
79346;SDS011;68815;48.810;44.482;2023-08-20T06:07:11;7.9;;;2.5;;
79346;SDS011;68815;48.810;44.482;2023-08-20T06:10:12;9.9;;;2.5;;
79346;SDS011;68815;48.810;44.482;2023-08-20T06:13:13;12.4;;;2.6;;
79346;SDS011;68815;48.810;44.482;2023-08-20T06:16:15;7.6;;;2.3;;
79346;SDS011;68815;48.810;44.482;2023-08-20T06:19:16;5.5;;;2.2;;
79346;SDS011;68815;48.810;44.482;2023-08-20T06:22:18;4.9;;;2.2;;
79346;SDS011;68815;48.810;44.482;2023-08-20T06:25:19;5.7;;;2.3;;
79346;SDS011;68815;48.810;44.482;2023-08-20T06:28:21;5.2;;;2.1;;
79346;SDS011;68815;48.810;44.482;2023-08-20T06:31:23;5.3;;;2.1;;
79346;SDS011;68815;48.810;44.482;2023-08-20T06:34:25;7.3;;;2.2;;
79346;SDS011;68815;48.810;44.482;2023-08-20T06:37:27;6.2;;;2.3;;
79346;SDS011;68815;48.810;44.482;2023-08-20T06:40:29;4.3;;;2.3;;
79346;SDS011;68815;48.810;44.482;2023-08-20T06:43:31;5.7;;;2.5;;
79346;SDS011;68815;48.810;44.482;2023-08-20T06:46:32;4.8;;;2;;
79346;SDS011;68815;48.810;44.482;2023-08-20T06:49:34;5.3;;;2.4;;
79346;SDS011;68815;48.810;44.482;2023-08-20T06:52:35;5;;;2.4;;
79346;SDS011;68815;48.810;44.482;2023-08-20T06:55:36;4.2;;;1.9;;
79346;SDS011;68815;48.810;44.482;2023-08-20T06:58:39;4.7;;;2.3;;
79346;SDS011;68815;48.810;44.482;2023-08-20T07:01:41;6;;;2.2;;
79346;SDS011;68815;48.810;44.482;2023-08-20T07:04:42;5.2;;;1.9;;
79346;SDS011;68815;48.810;44.482;2023-08-20T07:07:45;5.5;;;2;;
79346;SDS011;68815;48.810;44.482;2023-08-20T07:10:46;5;;;2.3;;
79346;SDS011;68815;48.810;44.482;2023-08-20T07:13:47;4.4;;;2;;
79346;SDS011;68815;48.810;44.482;2023-08-20T07:16:49;5.3;;;2.1;;
79346;SDS011;68815;48.810;44.482;2023-08-20T07:19:50;4;;;1.8;;
79346;SDS011;68815;48.810;44.482;2023-08-20T07:22:52;6.1;;;2;;
79346;SDS011;68815;48.810;44.482;2023-08-20T07:26:03;7.3;;;2.1;;
79346;SDS011;68815;48.810;44.482;2023-08-20T07:29:07;6.3;;;2;;
79346;SDS011;68815;48.810;44.482;2023-08-20T07:32:08;4;;;1.6;;
79346;SDS011;68815;48.810;44.482;2023-08-20T07:35:10;5.2;;;1.8;;
79346;SDS011;68815;48.810;44.482;2023-08-20T07:38:11;4.2;;;1.6;;
79346;SDS011;68815;48.810;44.482;2023-08-20T07:41:12;3.7;;;1.5;;
79346;SDS011;68815;48.810;44.482;2023-08-20T07:44:14;4.3;;;1.6;;
79346;SDS011;68815;48.810;44.482;2023-08-20T07:47:15;5.6;;;1.9;;
79346;SDS011;68815;48.810;44.482;2023-08-20T07:50:17;4.5;;;1.8;;
79346;SDS011;68815;48.810;44.482;2023-08-20T07:53:18;4.7;;;1.6;;
79346;SDS011;68815;48.810;44.482;2023-08-20T07:56:19;3.4;;;1.4;;
79346;SDS011;68815;48.810;44.482;2023-08-20T07:59:21;3.5;;;1.3;;
79346;SDS011;68815;48.810;44.482;2023-08-20T08:02:22;3.2;;;1.2;;
79346;SDS011;68815;48.810;44.482;2023-08-20T08:05:24;4;;;1.6;;
79346;SDS011;68815;48.810;44.482;2023-08-20T08:08:25;5.7;;;1.9;;
79346;SDS011;68815;48.810;44.482;2023-08-20T08:11:27;4.6;;;1.3;;
79346;SDS011;68815;48.810;44.482;2023-08-20T08:14:28;4.6;;;1.5;;
79346;SDS011;68815;48.810;44.482;2023-08-20T08:17:30;3.5;;;1.3;;
79346;SDS011;68815;48.810;44.482;2023-08-20T08:20:31;5.1;;;1.7;;
79346;SDS011;68815;48.810;44.482;2023-08-20T08:23:33;3.6;;;1.5;;
79346;SDS011;68815;48.810;44.482;2023-08-20T08:26:35;4.9;;;1.5;;
79346;SDS011;68815;48.810;44.482;2023-08-20T08:29:37;3.9;;;1.5;;
79346;SDS011;68815;48.810;44.482;2023-08-20T08:32:39;3.6;;;1.2;;
79346;SDS011;68815;48.810;44.482;2023-08-20T08:35:40;3.3;;;1;;
79346;SDS011;68815;48.810;44.482;2023-08-20T08:38:42;3.4;;;1.2;;
79346;SDS011;68815;48.810;44.482;2023-08-20T08:41:43;3;;;1;;
79346;SDS011;68815;48.810;44.482;2023-08-20T08:44:51;3.3;;;1.2;;
79346;SDS011;68815;48.810;44.482;2023-08-20T08:47:53;3.5;;;1;;
79346;SDS011;68815;48.810;44.482;2023-08-20T08:50:55;3;;;1.1;;
79346;SDS011;68815;48.810;44.482;2023-08-20T08:53:57;3.3;;;1.3;;
79346;SDS011;68815;48.810;44.482;2023-08-20T08:56:59;3;;;1.1;;
79346;SDS011;68815;48.810;44.482;2023-08-20T09:00:01;4.3;;;1.4;;
79346;SDS011;68815;48.810;44.482;2023-08-20T09:03:06;3.1;;;1.2;;
79346;SDS011;68815;48.810;44.482;2023-08-20T09:06:08;3.4;;;1.3;;
79346;SDS011;68815;48.810;44.482;2023-08-20T09:09:10;4.2;;;1.4;;
79346;SDS011;68815;48.810;44.482;2023-08-20T09:12:12;3.2;;;1.4;;
79346;SDS011;68815;48.810;44.482;2023-08-20T09:15:14;3.3;;;0.9;;
79346;SDS011;68815;48.810;44.482;2023-08-20T09:18:16;3;;;1.2;;
79346;SDS011;68815;48.810;44.482;2023-08-20T09:21:17;3.3;;;1.3;;
79346;SDS011;68815;48.810;44.482;2023-08-20T09:24:25;3.7;;;1.2;;
79346;SDS011;68815;48.810;44.482;2023-08-20T09:27:29;3.1;;;1.2;;
79346;SDS011;68815;48.810;44.482;2023-08-20T09:30:30;5.3;;;1.3;;
79346;SDS011;68815;48.810;44.482;2023-08-20T09:33:32;3.5;;;1.1;;
79346;SDS011;68815;48.810;44.482;2023-08-20T09:36:34;5;;;1.5;;
79346;SDS011;68815;48.810;44.482;2023-08-20T09:39:36;3.2;;;1.3;;
79346;SDS011;68815;48.810;44.482;2023-08-20T09:42:37;5.4;;;1.5;;
79346;SDS011;68815;48.810;44.482;2023-08-20T09:45:39;4.7;;;1.4;;
79346;SDS011;68815;48.810;44.482;2023-08-20T09:48:42;3.5;;;1.3;;
79346;SDS011;68815;48.810;44.482;2023-08-20T09:51:49;5.8;;;1.4;;
79346;SDS011;68815;48.810;44.482;2023-08-20T09:54:59;2.8;;;1.2;;
79346;SDS011;68815;48.810;44.482;2023-08-20T09:58:03;3.4;;;1.1;;
79346;SDS011;68815;48.810;44.482;2023-08-20T10:01:05;6.5;;;1.4;;
79346;SDS011;68815;48.810;44.482;2023-08-20T10:04:08;3;;;1.2;;
79346;SDS011;68815;48.810;44.482;2023-08-20T10:07:11;3.9;;;1.1;;
79346;SDS011;68815;48.810;44.482;2023-08-20T10:10:13;3.6;;;1.3;;
79346;SDS011;68815;48.810;44.482;2023-08-20T10:13:15;3.5;;;1.1;;
79346;SDS011;68815;48.810;44.482;2023-08-20T10:16:18;3;;;1.1;;
79346;SDS011;68815;48.810;44.482;2023-08-20T10:19:22;5.3;;;2.2;;
79346;SDS011;68815;48.810;44.482;2023-08-20T10:22:32;3.2;;;1.3;;
79346;SDS011;68815;48.810;44.482;2023-08-20T10:25:40;3.5;;;1.3;;
79346;SDS011;68815;48.810;44.482;2023-08-20T10:28:43;2.9;;;1.1;;
79346;SDS011;68815;48.810;44.482;2023-08-20T10:31:46;7;;;1.3;;
79346;SDS011;68815;48.810;44.482;2023-08-20T10:34:50;4.3;;;1.3;;
79346;SDS011;68815;48.810;44.482;2023-08-20T10:41:13;4.6;;;1.5;;
79346;SDS011;68815;48.810;44.482;2023-08-20T10:44:15;3.1;;;1.2;;
79346;SDS011;68815;48.810;44.482;2023-08-20T10:47:16;3.1;;;1.2;;
79346;SDS011;68815;48.810;44.482;2023-08-20T10:50:18;3.9;;;1.3;;
79346;SDS011;68815;48.810;44.482;2023-08-20T10:53:21;3.7;;;1.4;;
79346;SDS011;68815;48.810;44.482;2023-08-20T10:56:23;3.9;;;1.7;;
79346;SDS011;68815;48.810;44.482;2023-08-20T10:59:25;3.2;;;1.2;;
79346;SDS011;68815;48.810;44.482;2023-08-20T11:02:29;4.3;;;1.5;;
79346;SDS011;68815;48.810;44.482;2023-08-20T11:05:32;5.1;;;1.5;;
79346;SDS011;68815;48.810;44.482;2023-08-20T11:08:33;3.8;;;1.4;;
79346;SDS011;68815;48.810;44.482;2023-08-20T11:11:35;6.3;;;1.6;;
79346;SDS011;68815;48.810;44.482;2023-08-20T11:14:36;4.2;;;1.4;;
79346;SDS011;68815;48.810;44.482;2023-08-20T11:17:41;3;;;1.3;;
79346;SDS011;68815;48.810;44.482;2023-08-20T11:20:43;3.4;;;1.6;;
79346;SDS011;68815;48.810;44.482;2023-08-20T11:23:46;5.9;;;1.6;;
79346;SDS011;68815;48.810;44.482;2023-08-20T11:26:47;4;;;1.5;;
79346;SDS011;68815;48.810;44.482;2023-08-20T11:29:49;4.1;;;1.7;;
79346;SDS011;68815;48.810;44.482;2023-08-20T11:32:50;6.3;;;1.5;;
79346;SDS011;68815;48.810;44.482;2023-08-20T11:35:58;8.3;;;1.8;;
79346;SDS011;68815;48.810;44.482;2023-08-20T11:39:00;4.6;;;1.6;;
79346;SDS011;68815;48.810;44.482;2023-08-20T11:42:01;4.5;;;1.8;;
79346;SDS011;68815;48.810;44.482;2023-08-20T11:45:09;4.9;;;1.4;;
79346;SDS011;68815;48.810;44.482;2023-08-20T11:48:13;5.4;;;1.6;;
79346;SDS011;68815;48.810;44.482;2023-08-20T11:51:15;4.5;;;1.5;;
79346;SDS011;68815;48.810;44.482;2023-08-20T11:54:17;5.6;;;1.6;;
79346;SDS011;68815;48.810;44.482;2023-08-20T11:57:19;3.9;;;1.5;;
79346;SDS011;68815;48.810;44.482;2023-08-20T12:00:24;6.7;;;1.7;;
79346;SDS011;68815;48.810;44.482;2023-08-20T12:03:29;4.3;;;1.6;;
79346;SDS011;68815;48.810;44.482;2023-08-20T12:06:30;4.1;;;1.6;;
79346;SDS011;68815;48.810;44.482;2023-08-20T12:09:32;4.7;;;1.5;;
79346;SDS011;68815;48.810;44.482;2023-08-20T12:12:34;3.8;;;1.6;;
79346;SDS011;68815;48.810;44.482;2023-08-20T12:15:36;4.7;;;1.5;;
79346;SDS011;68815;48.810;44.482;2023-08-20T12:18:37;4.9;;;1.5;;
79346;SDS011;68815;48.810;44.482;2023-08-20T12:21:39;5.8;;;1.7;;
79346;SDS011;68815;48.810;44.482;2023-08-20T12:24:40;5.7;;;1.9;;
79346;SDS011;68815;48.810;44.482;2023-08-20T12:27:42;4.7;;;1.6;;
79346;SDS011;68815;48.810;44.482;2023-08-20T12:30:43;5.3;;;1.7;;
79346;SDS011;68815;48.810;44.482;2023-08-20T12:33:45;4.5;;;1.7;;
79346;SDS011;68815;48.810;44.482;2023-08-20T12:36:46;6.1;;;1.7;;
79346;SDS011;68815;48.810;44.482;2023-08-20T12:39:48;5.5;;;1.4;;
79346;SDS011;68815;48.810;44.482;2023-08-20T12:42:49;4.4;;;1.4;;
79346;SDS011;68815;48.810;44.482;2023-08-20T12:45:50;3.7;;;1.6;;
79346;SDS011;68815;48.810;44.482;2023-08-20T12:52:24;3.9;;;1.5;;
79346;SDS011;68815;48.810;44.482;2023-08-20T12:58:56;4;;;1.5;;
79346;SDS011;68815;48.810;44.482;2023-08-20T13:01:58;5.6;;;1.5;;
79346;SDS011;68815;48.810;44.482;2023-08-20T13:05:00;3.6;;;1.5;;
79346;SDS011;68815;48.810;44.482;2023-08-20T13:08:01;3.6;;;1.5;;
79346;SDS011;68815;48.810;44.482;2023-08-20T13:11:03;4.9;;;1.6;;
79346;SDS011;68815;48.810;44.482;2023-08-20T13:14:08;4.3;;;1.6;;
79346;SDS011;68815;48.810;44.482;2023-08-20T13:17:09;4.2;;;1.7;;
79346;SDS011;68815;48.810;44.482;2023-08-20T13:23:43;5.1;;;1.6;;
79346;SDS011;68815;48.810;44.482;2023-08-20T13:26:44;5.4;;;1.8;;
79346;SDS011;68815;48.810;44.482;2023-08-20T13:29:46;5.7;;;1.8;;
79346;SDS011;68815;48.810;44.482;2023-08-20T13:32:48;4.9;;;1.6;;
79346;SDS011;68815;48.810;44.482;2023-08-20T13:35:50;5.6;;;2.2;;
79346;SDS011;68815;48.810;44.482;2023-08-20T13:38:51;5.7;;;2.2;;
79346;SDS011;68815;48.810;44.482;2023-08-20T13:41:53;4.3;;;2;;
79346;SDS011;68815;48.810;44.482;2023-08-20T13:44:54;4.7;;;1.7;;
79346;SDS011;68815;48.810;44.482;2023-08-20T13:47:56;5.3;;;2.1;;
79346;SDS011;68815;48.810;44.482;2023-08-20T13:50:57;5.7;;;2.4;;
79346;SDS011;68815;48.810;44.482;2023-08-20T13:53:59;8.6;;;1.9;;
79346;SDS011;68815;48.810;44.482;2023-08-20T13:57:00;5.2;;;2;;
79346;SDS011;68815;48.810;44.482;2023-08-20T14:00:02;4.2;;;1.8;;
79346;SDS011;68815;48.810;44.482;2023-08-20T14:03:05;6.1;;;2;;
79346;SDS011;68815;48.810;44.482;2023-08-20T14:06:07;5.7;;;2;;
79346;SDS011;68815;48.810;44.482;2023-08-20T14:09:09;5.4;;;2.5;;
79346;SDS011;68815;48.810;44.482;2023-08-20T14:12:10;7.4;;;3;;
79346;SDS011;68815;48.810;44.482;2023-08-20T14:15:11;13.2;;;3.6;;
79346;SDS011;68815;48.810;44.482;2023-08-20T14:18:13;10;;;3.8;;
79346;SDS011;68815;48.810;44.482;2023-08-20T14:21:14;8.8;;;2.9;;
79346;SDS011;68815;48.810;44.482;2023-08-20T14:24:17;6.7;;;2.5;;
79346;SDS011;68815;48.810;44.482;2023-08-20T14:27:18;4.5;;;1.8;;
79346;SDS011;68815;48.810;44.482;2023-08-20T14:30:20;5.4;;;1.8;;
79346;SDS011;68815;48.810;44.482;2023-08-20T14:33:21;6.3;;;2;;
79346;SDS011;68815;48.810;44.482;2023-08-20T14:36:23;4.4;;;1.9;;
79346;SDS011;68815;48.810;44.482;2023-08-20T14:39:24;4.5;;;1.6;;
79346;SDS011;68815;48.810;44.482;2023-08-20T14:42:25;5.2;;;2;;
79346;SDS011;68815;48.810;44.482;2023-08-20T14:45:27;5.6;;;2;;
79346;SDS011;68815;48.810;44.482;2023-08-20T14:48:28;6;;;1.9;;
79346;SDS011;68815;48.810;44.482;2023-08-20T14:51:29;8.6;;;1.8;;
79346;SDS011;68815;48.810;44.482;2023-08-20T14:54:31;4.2;;;1.7;;
79346;SDS011;68815;48.810;44.482;2023-08-20T14:57:32;8.2;;;1.9;;
79346;SDS011;68815;48.810;44.482;2023-08-20T15:00:34;4.7;;;1.6;;
79346;SDS011;68815;48.810;44.482;2023-08-20T15:03:35;5.6;;;1.8;;
79346;SDS011;68815;48.810;44.482;2023-08-20T15:06:37;10.1;;;1.6;;
79346;SDS011;68815;48.810;44.482;2023-08-20T15:09:38;7.9;;;1.9;;
79346;SDS011;68815;48.810;44.482;2023-08-20T15:12:40;5.3;;;2.5;;
79346;SDS011;68815;48.810;44.482;2023-08-20T15:15:41;6.1;;;2;;
79346;SDS011;68815;48.810;44.482;2023-08-20T15:18:42;7.1;;;2.5;;
79346;SDS011;68815;48.810;44.482;2023-08-20T15:21:44;7.2;;;2.2;;
79346;SDS011;68815;48.810;44.482;2023-08-20T15:24:46;7.6;;;2.8;;
79346;SDS011;68815;48.810;44.482;2023-08-20T15:27:49;6.6;;;2.6;;
79346;SDS011;68815;48.810;44.482;2023-08-20T15:30:51;5.8;;;2;;
79346;SDS011;68815;48.810;44.482;2023-08-20T15:33:52;6.5;;;2.2;;
79346;SDS011;68815;48.810;44.482;2023-08-20T15:36:53;5.9;;;2.3;;
79346;SDS011;68815;48.810;44.482;2023-08-20T15:39:55;9.3;;;2.7;;
79346;SDS011;68815;48.810;44.482;2023-08-20T15:42:56;5.3;;;1.9;;
79346;SDS011;68815;48.810;44.482;2023-08-20T15:45:58;6.9;;;2.5;;
79346;SDS011;68815;48.810;44.482;2023-08-20T15:48:59;8.6;;;2.4;;
79346;SDS011;68815;48.810;44.482;2023-08-20T15:52:01;6.4;;;2.5;;
79346;SDS011;68815;48.810;44.482;2023-08-20T15:55:02;5.9;;;3.2;;
79346;SDS011;68815;48.810;44.482;2023-08-20T15:58:05;6.4;;;3.2;;
79346;SDS011;68815;48.810;44.482;2023-08-20T16:01:06;6.8;;;3;;
79346;SDS011;68815;48.810;44.482;2023-08-20T16:04:08;8.2;;;3.3;;
79346;SDS011;68815;48.810;44.482;2023-08-20T16:07:09;9.8;;;3.3;;
79346;SDS011;68815;48.810;44.482;2023-08-20T16:10:11;11.6;;;4.4;;
79346;SDS011;68815;48.810;44.482;2023-08-20T16:13:13;11.2;;;3.9;;
79346;SDS011;68815;48.810;44.482;2023-08-20T16:16:14;14.1;;;3.8;;
79346;SDS011;68815;48.810;44.482;2023-08-20T16:19:16;14.7;;;3.8;;
79346;SDS011;68815;48.810;44.482;2023-08-20T16:22:17;6;;;3.3;;
79346;SDS011;68815;48.810;44.482;2023-08-20T16:25:19;6.9;;;3.2;;
79346;SDS011;68815;48.810;44.482;2023-08-20T16:28:22;11.5;;;2.6;;
79346;SDS011;68815;48.810;44.482;2023-08-20T16:31:24;11.6;;;2.6;;
79346;SDS011;68815;48.810;44.482;2023-08-20T16:34:26;9.7;;;2.7;;
79346;SDS011;68815;48.810;44.482;2023-08-20T16:37:27;6;;;2.5;;
79346;SDS011;68815;48.810;44.482;2023-08-20T16:40:29;7.3;;;2.6;;
79346;SDS011;68815;48.810;44.482;2023-08-20T16:43:31;7;;;2.6;;
79346;SDS011;68815;48.810;44.482;2023-08-20T16:46:33;7.3;;;2.2;;
79346;SDS011;68815;48.810;44.482;2023-08-20T16:49:35;7.5;;;2.5;;
79346;SDS011;68815;48.810;44.482;2023-08-20T16:52:36;6.7;;;2.6;;
79346;SDS011;68815;48.810;44.482;2023-08-20T16:55:38;10;;;2.4;;
79346;SDS011;68815;48.810;44.482;2023-08-20T16:58:39;5.2;;;2.1;;
79346;SDS011;68815;48.810;44.482;2023-08-20T17:01:41;5.1;;;2.6;;
79346;SDS011;68815;48.810;44.482;2023-08-20T17:04:42;6.5;;;2.3;;
79346;SDS011;68815;48.810;44.482;2023-08-20T17:07:44;9.7;;;3.1;;
79346;SDS011;68815;48.810;44.482;2023-08-20T17:10:45;7.8;;;2.8;;
79346;SDS011;68815;48.810;44.482;2023-08-20T17:13:47;7.7;;;2.6;;
79346;SDS011;68815;48.810;44.482;2023-08-20T17:16:48;5;;;2.5;;
79346;SDS011;68815;48.810;44.482;2023-08-20T17:19:50;9;;;2.7;;
79346;SDS011;68815;48.810;44.482;2023-08-20T17:22:51;11.4;;;2.8;;
79346;SDS011;68815;48.810;44.482;2023-08-20T17:25:53;7.3;;;2.4;;
79346;SDS011;68815;48.810;44.482;2023-08-20T17:28:55;6.6;;;2.5;;
79346;SDS011;68815;48.810;44.482;2023-08-20T17:31:58;8.4;;;2.6;;
79346;SDS011;68815;48.810;44.482;2023-08-20T17:34:59;13.4;;;2.7;;
79346;SDS011;68815;48.810;44.482;2023-08-20T17:38:01;14.9;;;3.1;;
79346;SDS011;68815;48.810;44.482;2023-08-20T17:41:03;10.7;;;2.7;;
79346;SDS011;68815;48.810;44.482;2023-08-20T17:44:05;7.6;;;2.3;;
79346;SDS011;68815;48.810;44.482;2023-08-20T17:47:06;7.2;;;2.3;;
79346;SDS011;68815;48.810;44.482;2023-08-20T17:50:08;12.3;;;2.9;;
79346;SDS011;68815;48.810;44.482;2023-08-20T17:53:10;8.8;;;3.1;;
79346;SDS011;68815;48.810;44.482;2023-08-20T17:56:11;5.9;;;2.5;;
79346;SDS011;68815;48.810;44.482;2023-08-20T17:59:12;9.4;;;2.5;;
79346;SDS011;68815;48.810;44.482;2023-08-20T18:02:14;8.3;;;2.8;;
79346;SDS011;68815;48.810;44.482;2023-08-20T18:05:15;7.5;;;2.5;;
79346;SDS011;68815;48.810;44.482;2023-08-20T18:08:17;8.5;;;2.4;;
79346;SDS011;68815;48.810;44.482;2023-08-20T18:11:19;7.5;;;2.1;;
79346;SDS011;68815;48.810;44.482;2023-08-20T18:14:20;9.2;;;2.8;;
79346;SDS011;68815;48.810;44.482;2023-08-20T18:17:22;9;;;3;;
79346;SDS011;68815;48.810;44.482;2023-08-20T18:20:23;8.4;;;2.7;;
79346;SDS011;68815;48.810;44.482;2023-08-20T18:23:24;6.2;;;2.7;;
79346;SDS011;68815;48.810;44.482;2023-08-20T18:26:26;9.1;;;2.8;;
79346;SDS011;68815;48.810;44.482;2023-08-20T18:29:28;7.6;;;2.8;;
79346;SDS011;68815;48.810;44.482;2023-08-20T18:32:30;9.3;;;3;;
79346;SDS011;68815;48.810;44.482;2023-08-20T18:35:31;5.7;;;2.6;;
79346;SDS011;68815;48.810;44.482;2023-08-20T18:38:36;7.2;;;3;;
79346;SDS011;68815;48.810;44.482;2023-08-20T18:41:39;8.8;;;2.5;;
79346;SDS011;68815;48.810;44.482;2023-08-20T18:44:40;6.2;;;2.8;;
79346;SDS011;68815;48.810;44.482;2023-08-20T18:47:42;6.8;;;2.8;;
79346;SDS011;68815;48.810;44.482;2023-08-20T18:50:43;6.3;;;2.8;;
79346;SDS011;68815;48.810;44.482;2023-08-20T18:53:45;7.3;;;2.4;;
79346;SDS011;68815;48.810;44.482;2023-08-20T18:56:46;10.4;;;2.9;;
79346;SDS011;68815;48.810;44.482;2023-08-20T18:59:47;8.4;;;2.7;;